ESMR weather

CLOSED Trelleborg Airport
Trelleborg, Skåne län, Sweden

Public forecast

Using degrees Celsius for public forecast. Weather courtesy of forecast.io.

Closest aviation weather report (METAR) to Trelleborg Airport

Closest report is Malmö Sturup Airport, 14.9 nm (27.6 km) NE. Retrieved 2019/10/23 20:20 UTC (0 seconds ago):

ESMS 232020Z 15007KT 3100 BR FEW003 SCT005 10/10 Q1016

Closest aviation forecast (TAF) to Trelleborg Airport

Closest forecast is Malmö Sturup Airport, 14.9 nm (27.6 km) NE. Retrieved 2019/10/23 18:36 UTC (2 hours ago):

TAF ESMS 231711Z 2318/2418 15010KT 8000 BKN025 TEMPO 2318/2323 3000 BR BKN004 TEMPO 2323/2406 2500 BR BECMG 2406/2408 BKN004 TEMPO 2408/2418 1200 BR BKN001